Terminal Aerodrome Forecast
Issued by NWS

Home | Current Version | Previous Version | Graphics & Text | Print | Product List | Glossary On
Versions: 1 2 3 4 5 6 7 8 9 10 11 12 13 14 15
000
FTUS43 KIWX 011700
TAFSBN
TAF
KSBN 011732Z 0118/0218 21012G20KT P6SM BKN020
      TEMPO 0118/0120 3SM TSRA OVC015CB
     FM012100 23012KT P6SM SCT060
     FM020300 25005KT 6SM -SHRA VCTS BKN035CB
     FM020800 30006KT P6SM BKN020=

USA.gov is the U.S. government's official web portal to all federal, state and local government web resources and services.